sensor_id;sensor_type;location;lat;lon;timestamp;temperature;humidity
2851;DHT22;1433;49.976;8.342;2023-04-06T00:00:33;2.90;99.90
2851;DHT22;1433;49.976;8.342;2023-04-06T00:02:59;2.80;99.90
2851;DHT22;1433;49.976;8.342;2023-04-06T00:05:25;2.70;99.90
2851;DHT22;1433;49.976;8.342;2023-04-06T00:07:53;2.60;99.90
2851;DHT22;1433;49.976;8.342;2023-04-06T00:10:21;2.60;99.90
2851;DHT22;1433;49.976;8.342;2023-04-06T00:12:48;2.60;99.90
2851;DHT22;1433;49.976;8.342;2023-04-06T00:15:14;2.60;99.90
2851;DHT22;1433;49.976;8.342;2023-04-06T00:17:40;2.40;99.90
2851;DHT22;1433;49.976;8.342;2023-04-06T00:20:07;2.30;99.90
2851;DHT22;1433;49.976;8.342;2023-04-06T00:22:34;2.20;99.90
2851;DHT22;1433;49.976;8.342;2023-04-06T00:25:00;2.10;99.90
2851;DHT22;1433;49.976;8.342;2023-04-06T00:27:26;2.00;99.90
2851;DHT22;1433;49.976;8.342;2023-04-06T00:29:52;1.90;99.90
2851;DHT22;1433;49.976;8.342;2023-04-06T00:32:19;1.80;99.90
2851;DHT22;1433;49.976;8.342;2023-04-06T00:34:45;1.80;99.90
2851;DHT22;1433;49.976;8.342;2023-04-06T00:37:11;1.80;99.90
2851;DHT22;1433;49.976;8.342;2023-04-06T00:39:38;1.70;99.90
2851;DHT22;1433;49.976;8.342;2023-04-06T00:42:13;1.70;99.90
2851;DHT22;1433;49.976;8.342;2023-04-06T00:44:38;1.60;99.90
2851;DHT22;1433;49.976;8.342;2023-04-06T00:47:04;1.50;99.90
2851;DHT22;1433;49.976;8.342;2023-04-06T00:49:32;1.50;99.90
2851;DHT22;1433;49.976;8.342;2023-04-06T00:51:58;1.50;99.90
2851;DHT22;1433;49.976;8.342;2023-04-06T00:54:24;1.50;99.90
2851;DHT22;1433;49.976;8.342;2023-04-06T00:56:51;1.40;99.90
2851;DHT22;1433;49.976;8.342;2023-04-06T00:59:18;1.30;99.90
2851;DHT22;1433;49.976;8.342;2023-04-06T01:01:44;1.30;99.90
2851;DHT22;1433;49.976;8.342;2023-04-06T01:04:12;1.20;99.90
2851;DHT22;1433;49.976;8.342;2023-04-06T01:06:40;1.20;99.90
2851;DHT22;1433;49.976;8.342;2023-04-06T01:09:07;1.20;99.90
2851;DHT22;1433;49.976;8.342;2023-04-06T01:11:33;1.20;99.90
2851;DHT22;1433;49.976;8.342;2023-04-06T01:14:02;1.10;99.90
2851;DHT22;1433;49.976;8.342;2023-04-06T01:16:31;1.10;99.90
2851;DHT22;1433;49.976;8.342;2023-04-06T01:18:59;1.10;99.90
2851;DHT22;1433;49.976;8.342;2023-04-06T01:21:28;1.10;99.90
2851;DHT22;1433;49.976;8.342;2023-04-06T01:24:06;1.10;99.90
2851;DHT22;1433;49.976;8.342;2023-04-06T01:26:36;1.10;99.90
2851;DHT22;1433;49.976;8.342;2023-04-06T01:29:04;0.90;99.90
2851;DHT22;1433;49.976;8.342;2023-04-06T01:31:31;0.90;99.90
2851;DHT22;1433;49.976;8.342;2023-04-06T01:33:57;0.80;99.90
2851;DHT22;1433;49.976;8.342;2023-04-06T01:36:24;0.80;99.90
2851;DHT22;1433;49.976;8.342;2023-04-06T01:38:52;0.70;99.90
2851;DHT22;1433;49.976;8.342;2023-04-06T01:41:20;0.70;99.90
2851;DHT22;1433;49.976;8.342;2023-04-06T01:43:49;0.70;99.90
2851;DHT22;1433;49.976;8.342;2023-04-06T01:46:16;0.70;99.90
2851;DHT22;1433;49.976;8.342;2023-04-06T01:48:42;0.70;99.90
2851;DHT22;1433;49.976;8.342;2023-04-06T01:51:10;0.60;99.90
2851;DHT22;1433;49.976;8.342;2023-04-06T01:53:38;0.70;99.90
2851;DHT22;1433;49.976;8.342;2023-04-06T01:56:06;0.60;99.90
2851;DHT22;1433;49.976;8.342;2023-04-06T01:58:34;0.60;99.90
2851;DHT22;1433;49.976;8.342;2023-04-06T02:01:00;0.50;99.90
2851;DHT22;1433;49.976;8.342;2023-04-06T02:03:28;0.50;99.90
2851;DHT22;1433;49.976;8.342;2023-04-06T02:05:56;0.50;99.90
2851;DHT22;1433;49.976;8.342;2023-04-06T02:08:24;0.40;99.90
2851;DHT22;1433;49.976;8.342;2023-04-06T02:10:51;0.50;99.90
2851;DHT22;1433;49.976;8.342;2023-04-06T02:13:22;0.50;99.90
2851;DHT22;1433;49.976;8.342;2023-04-06T02:15:51;0.50;99.90
2851;DHT22;1433;49.976;8.342;2023-04-06T02:18:17;0.50;99.90
2851;DHT22;1433;49.976;8.342;2023-04-06T02:20:44;0.40;99.90
2851;DHT22;1433;49.976;8.342;2023-04-06T02:23:11;0.40;99.90
2851;DHT22;1433;49.976;8.342;2023-04-06T02:25:37;0.40;99.90
2851;DHT22;1433;49.976;8.342;2023-04-06T02:28:04;0.40;99.90
2851;DHT22;1433;49.976;8.342;2023-04-06T02:30:30;0.40;99.90
2851;DHT22;1433;49.976;8.342;2023-04-06T02:33:00;0.50;99.90
2851;DHT22;1433;49.976;8.342;2023-04-06T02:35:28;0.40;99.90
2851;DHT22;1433;49.976;8.342;2023-04-06T02:37:55;0.40;99.90
2851;DHT22;1433;49.976;8.342;2023-04-06T02:40:21;0.40;99.90
2851;DHT22;1433;49.976;8.342;2023-04-06T02:42:48;0.40;99.90
2851;DHT22;1433;49.976;8.342;2023-04-06T02:45:14;0.40;99.90
2851;DHT22;1433;49.976;8.342;2023-04-06T02:47:42;0.40;99.90
2851;DHT22;1433;49.976;8.342;2023-04-06T02:50:10;0.40;99.90
2851;DHT22;1433;49.976;8.342;2023-04-06T02:52:38;0.40;99.90
2851;DHT22;1433;49.976;8.342;2023-04-06T02:55:05;0.30;99.90
2851;DHT22;1433;49.976;8.342;2023-04-06T02:57:33;0.20;99.90
2851;DHT22;1433;49.976;8.342;2023-04-06T03:00:00;0.20;99.90
2851;DHT22;1433;49.976;8.342;2023-04-06T03:02:28;0.20;99.90
2851;DHT22;1433;49.976;8.342;2023-04-06T03:04:57;0.20;99.90
2851;DHT22;1433;49.976;8.342;2023-04-06T03:07:25;0.20;99.90
2851;DHT22;1433;49.976;8.342;2023-04-06T03:09:51;0.20;99.90
2851;DHT22;1433;49.976;8.342;2023-04-06T03:12:17;0.20;99.90
2851;DHT22;1433;49.976;8.342;2023-04-06T03:14:45;0.20;99.90
2851;DHT22;1433;49.976;8.342;2023-04-06T03:17:11;0.10;99.90
2851;DHT22;1433;49.976;8.342;2023-04-06T03:19:38;0.00;99.90
2851;DHT22;1433;49.976;8.342;2023-04-06T03:22:06;0.00;99.90
2851;DHT22;1433;49.976;8.342;2023-04-06T03:24:32;0.00;99.90
2851;DHT22;1433;49.976;8.342;2023-04-06T03:26:58;0.00;99.90
2851;DHT22;1433;49.976;8.342;2023-04-06T03:29:24;0.00;99.90
2851;DHT22;1433;49.976;8.342;2023-04-06T03:31:51;0.00;99.90
2851;DHT22;1433;49.976;8.342;2023-04-06T03:34:25;-0.10;99.90
2851;DHT22;1433;49.976;8.342;2023-04-06T03:36:51;-0.10;99.90
2851;DHT22;1433;49.976;8.342;2023-04-06T03:39:18;-0.10;99.90
2851;DHT22;1433;49.976;8.342;2023-04-06T03:41:44;-0.10;99.90
2851;DHT22;1433;49.976;8.342;2023-04-06T03:44:29;-0.10;99.90
2851;DHT22;1433;49.976;8.342;2023-04-06T03:46:55;-0.10;99.90
2851;DHT22;1433;49.976;8.342;2023-04-06T03:49:22;-0.20;99.90
2851;DHT22;1433;49.976;8.342;2023-04-06T03:51:50;-0.20;99.90
2851;DHT22;1433;49.976;8.342;2023-04-06T03:54:16;-0.30;99.90
2851;DHT22;1433;49.976;8.342;2023-04-06T03:56:42;-0.20;99.90
2851;DHT22;1433;49.976;8.342;2023-04-06T03:59:09;-0.20;99.90
2851;DHT22;1433;49.976;8.342;2023-04-06T04:01:35;-0.20;99.90
2851;DHT22;1433;49.976;8.342;2023-04-06T04:04:02;-0.30;99.90
2851;DHT22;1433;49.976;8.342;2023-04-06T04:06:30;-0.20;99.90
2851;DHT22;1433;49.976;8.342;2023-04-06T04:08:57;-0.30;99.90
2851;DHT22;1433;49.976;8.342;2023-04-06T04:11:23;-0.30;99.90
2851;DHT22;1433;49.976;8.342;2023-04-06T04:13:51;-0.30;99.90
2851;DHT22;1433;49.976;8.342;2023-04-06T04:16:18;-0.40;99.90
2851;DHT22;1433;49.976;8.342;2023-04-06T04:18:44;-0.40;99.90
2851;DHT22;1433;49.976;8.342;2023-04-06T04:21:11;-0.40;99.90
2851;DHT22;1433;49.976;8.342;2023-04-06T04:23:53;-0.40;99.90
2851;DHT22;1433;49.976;8.342;2023-04-06T04:26:19;-0.50;99.90
2851;DHT22;1433;49.976;8.342;2023-04-06T04:28:46;-0.40;99.90
2851;DHT22;1433;49.976;8.342;2023-04-06T04:31:14;-0.40;99.90
2851;DHT22;1433;49.976;8.342;2023-04-06T04:33:41;-0.40;99.90
2851;DHT22;1433;49.976;8.342;2023-04-06T04:36:09;-0.40;99.90
2851;DHT22;1433;49.976;8.342;2023-04-06T04:38:37;-0.40;99.90
2851;DHT22;1433;49.976;8.342;2023-04-06T04:41:04;-0.50;99.90
2851;DHT22;1433;49.976;8.342;2023-04-06T04:43:30;-0.50;99.90
2851;DHT22;1433;49.976;8.342;2023-04-06T04:45:58;-0.50;99.90
2851;DHT22;1433;49.976;8.342;2023-04-06T04:48:27;-0.60;99.90
2851;DHT22;1433;49.976;8.342;2023-04-06T04:50:55;-0.50;99.90
2851;DHT22;1433;49.976;8.342;2023-04-06T04:53:23;-0.60;99.90
2851;DHT22;1433;49.976;8.342;2023-04-06T04:55:50;-0.60;99.90
2851;DHT22;1433;49.976;8.342;2023-04-06T04:58:18;-0.60;99.90
2851;DHT22;1433;49.976;8.342;2023-04-06T05:00:50;-0.50;99.90
2851;DHT22;1433;49.976;8.342;2023-04-06T05:03:22;-0.50;99.90
2851;DHT22;1433;49.976;8.342;2023-04-06T05:05:50;-0.50;99.90
2851;DHT22;1433;49.976;8.342;2023-04-06T05:08:17;-0.50;99.90
2851;DHT22;1433;49.976;8.342;2023-04-06T05:10:46;-0.50;99.90
2851;DHT22;1433;49.976;8.342;2023-04-06T05:13:14;-0.50;99.90
2851;DHT22;1433;49.976;8.342;2023-04-06T05:15:41;-0.50;99.90
2851;DHT22;1433;49.976;8.342;2023-04-06T05:18:09;-0.40;99.90
2851;DHT22;1433;49.976;8.342;2023-04-06T05:20:36;-0.30;99.90
2851;DHT22;1433;49.976;8.342;2023-04-06T05:23:02;-0.20;99.90
2851;DHT22;1433;49.976;8.342;2023-04-06T05:25:30;-0.20;99.90
2851;DHT22;1433;49.976;8.342;2023-04-06T05:27:58;-0.10;99.90
2851;DHT22;1433;49.976;8.342;2023-04-06T05:30:26;-0.10;99.90
2851;DHT22;1433;49.976;8.342;2023-04-06T05:32:53;0.00;99.90
2851;DHT22;1433;49.976;8.342;2023-04-06T05:35:21;0.10;99.90
2851;DHT22;1433;49.976;8.342;2023-04-06T05:37:49;0.10;99.90
2851;DHT22;1433;49.976;8.342;2023-04-06T05:40:16;0.20;99.90
2851;DHT22;1433;49.976;8.342;2023-04-06T05:42:42;0.20;99.90
2851;DHT22;1433;49.976;8.342;2023-04-06T05:45:10;0.30;99.90
2851;DHT22;1433;49.976;8.342;2023-04-06T05:47:39;0.30;99.90
2851;DHT22;1433;49.976;8.342;2023-04-06T05:50:08;0.40;99.90
2851;DHT22;1433;49.976;8.342;2023-04-06T05:52:36;0.50;99.90
2851;DHT22;1433;49.976;8.342;2023-04-06T05:55:03;0.70;99.90
2851;DHT22;1433;49.976;8.342;2023-04-06T05:57:30;0.80;99.90
2851;DHT22;1433;49.976;8.342;2023-04-06T05:59:56;0.90;99.90
2851;DHT22;1433;49.976;8.342;2023-04-06T06:02:24;1.00;99.90
2851;DHT22;1433;49.976;8.342;2023-04-06T06:04:51;1.10;99.90
2851;DHT22;1433;49.976;8.342;2023-04-06T06:07:18;1.10;99.90
2851;DHT22;1433;49.976;8.342;2023-04-06T06:09:46;1.20;99.90
2851;DHT22;1433;49.976;8.342;2023-04-06T06:12:17;1.20;99.90
2851;DHT22;1433;49.976;8.342;2023-04-06T06:14:43;1.20;99.90
2851;DHT22;1433;49.976;8.342;2023-04-06T06:17:10;1.30;99.90
2851;DHT22;1433;49.976;8.342;2023-04-06T06:19:36;1.40;99.90
2851;DHT22;1433;49.976;8.342;2023-04-06T06:22:05;1.50;99.90
2851;DHT22;1433;49.976;8.342;2023-04-06T06:24:33;1.50;99.90
2851;DHT22;1433;49.976;8.342;2023-04-06T06:26:59;1.60;99.90
2851;DHT22;1433;49.976;8.342;2023-04-06T06:29:28;1.70;99.90
2851;DHT22;1433;49.976;8.342;2023-04-06T06:31:54;1.80;99.90
2851;DHT22;1433;49.976;8.342;2023-04-06T06:34:20;1.80;99.90
2851;DHT22;1433;49.976;8.342;2023-04-06T06:36:48;1.90;99.90
2851;DHT22;1433;49.976;8.342;2023-04-06T06:39:20;2.00;99.90
2851;DHT22;1433;49.976;8.342;2023-04-06T06:41:47;2.00;99.90
2851;DHT22;1433;49.976;8.342;2023-04-06T06:44:14;2.10;99.90
2851;DHT22;1433;49.976;8.342;2023-04-06T06:46:42;2.20;99.90
2851;DHT22;1433;49.976;8.342;2023-04-06T06:49:09;2.20;99.90
2851;DHT22;1433;49.976;8.342;2023-04-06T06:51:37;2.30;99.90
2851;DHT22;1433;49.976;8.342;2023-04-06T06:54:04;2.40;99.90
2851;DHT22;1433;49.976;8.342;2023-04-06T06:56:30;2.40;99.90
2851;DHT22;1433;49.976;8.342;2023-04-06T06:58:58;2.50;99.90
2851;DHT22;1433;49.976;8.342;2023-04-06T07:01:24;2.60;99.90
2851;DHT22;1433;49.976;8.342;2023-04-06T07:03:50;2.70;99.90
2851;DHT22;1433;49.976;8.342;2023-04-06T07:06:16;2.80;99.90
2851;DHT22;1433;49.976;8.342;2023-04-06T07:08:43;2.80;99.90
2851;DHT22;1433;49.976;8.342;2023-04-06T07:11:09;2.90;99.90
2851;DHT22;1433;49.976;8.342;2023-04-06T07:13:35;3.00;99.90
2851;DHT22;1433;49.976;8.342;2023-04-06T07:16:01;3.10;99.90
2851;DHT22;1433;49.976;8.342;2023-04-06T07:18:28;3.20;99.90
2851;DHT22;1433;49.976;8.342;2023-04-06T07:20:55;3.30;99.90
2851;DHT22;1433;49.976;8.342;2023-04-06T07:23:21;3.40;99.90
2851;DHT22;1433;49.976;8.342;2023-04-06T07:25:47;3.50;99.90
2851;DHT22;1433;49.976;8.342;2023-04-06T07:28:15;3.60;99.90
2851;DHT22;1433;49.976;8.342;2023-04-06T07:30:42;3.70;99.90
2851;DHT22;1433;49.976;8.342;2023-04-06T07:33:08;3.70;99.90
2851;DHT22;1433;49.976;8.342;2023-04-06T07:35:35;3.70;99.90
2851;DHT22;1433;49.976;8.342;2023-04-06T07:38:02;3.80;99.90
2851;DHT22;1433;49.976;8.342;2023-04-06T07:40:30;3.80;99.90
2851;DHT22;1433;49.976;8.342;2023-04-06T07:42:58;3.90;99.90
2851;DHT22;1433;49.976;8.342;2023-04-06T07:45:25;4.00;99.90
2851;DHT22;1433;49.976;8.342;2023-04-06T07:47:52;4.10;99.90
2851;DHT22;1433;49.976;8.342;2023-04-06T07:50:18;4.20;99.90
2851;DHT22;1433;49.976;8.342;2023-04-06T07:52:45;4.30;99.90
2851;DHT22;1433;49.976;8.342;2023-04-06T07:55:11;4.40;99.90
2851;DHT22;1433;49.976;8.342;2023-04-06T07:57:38;4.60;99.90
2851;DHT22;1433;49.976;8.342;2023-04-06T08:00:05;4.60;99.90
2851;DHT22;1433;49.976;8.342;2023-04-06T08:02:34;4.70;99.90
2851;DHT22;1433;49.976;8.342;2023-04-06T08:05:00;4.80;99.90
2851;DHT22;1433;49.976;8.342;2023-04-06T08:07:26;4.80;99.90
2851;DHT22;1433;49.976;8.342;2023-04-06T08:09:52;4.90;99.90
2851;DHT22;1433;49.976;8.342;2023-04-06T08:12:20;5.00;99.90
2851;DHT22;1433;49.976;8.342;2023-04-06T08:14:47;5.00;99.90
2851;DHT22;1433;49.976;8.342;2023-04-06T08:17:13;5.10;99.90
2851;DHT22;1433;49.976;8.342;2023-04-06T08:19:42;5.20;99.90
2851;DHT22;1433;49.976;8.342;2023-04-06T08:22:10;5.40;99.90
2851;DHT22;1433;49.976;8.342;2023-04-06T08:24:37;5.60;99.90
2851;DHT22;1433;49.976;8.342;2023-04-06T08:30:17;5.70;99.90
2851;DHT22;1433;49.976;8.342;2023-04-06T08:32:45;5.80;99.90
2851;DHT22;1433;49.976;8.342;2023-04-06T08:35:11;5.90;99.90
2851;DHT22;1433;49.976;8.342;2023-04-06T08:37:37;6.00;99.90
2851;DHT22;1433;49.976;8.342;2023-04-06T08:40:05;6.10;99.90
2851;DHT22;1433;49.976;8.342;2023-04-06T08:42:39;6.00;99.90
2851;DHT22;1433;49.976;8.342;2023-04-06T08:45:04;6.00;99.90
2851;DHT22;1433;49.976;8.342;2023-04-06T08:47:31;6.10;99.90
2851;DHT22;1433;49.976;8.342;2023-04-06T08:49:58;6.30;99.90
2851;DHT22;1433;49.976;8.342;2023-04-06T08:52:25;6.40;99.90
2851;DHT22;1433;49.976;8.342;2023-04-06T08:54:52;6.60;99.90
2851;DHT22;1433;49.976;8.342;2023-04-06T08:57:19;6.50;99.90
2851;DHT22;1433;49.976;8.342;2023-04-06T08:59:46;6.60;99.90
2851;DHT22;1433;49.976;8.342;2023-04-06T09:02:15;6.70;99.90
2851;DHT22;1433;49.976;8.342;2023-04-06T09:04:43;6.80;99.90
2851;DHT22;1433;49.976;8.342;2023-04-06T09:07:10;7.00;99.90
2851;DHT22;1433;49.976;8.342;2023-04-06T09:09:36;7.20;99.90
2851;DHT22;1433;49.976;8.342;2023-04-06T09:12:03;7.40;99.90
2851;DHT22;1433;49.976;8.342;2023-04-06T09:14:38;7.50;99.90
2851;DHT22;1433;49.976;8.342;2023-04-06T09:17:05;7.70;99.90
2851;DHT22;1433;49.976;8.342;2023-04-06T09:19:31;7.80;99.90
2851;DHT22;1433;49.976;8.342;2023-04-06T09:22:05;8.00;99.90
2851;DHT22;1433;49.976;8.342;2023-04-06T09:24:44;7.90;99.90
2851;DHT22;1433;49.976;8.342;2023-04-06T09:27:11;8.00;99.90
2851;DHT22;1433;49.976;8.342;2023-04-06T09:29:37;8.10;99.90
2851;DHT22;1433;49.976;8.342;2023-04-06T09:32:05;8.20;99.90
2851;DHT22;1433;49.976;8.342;2023-04-06T09:34:32;8.60;99.90
2851;DHT22;1433;49.976;8.342;2023-04-06T09:36:58;8.90;99.90
2851;DHT22;1433;49.976;8.342;2023-04-06T09:39:25;9.10;99.90
2851;DHT22;1433;49.976;8.342;2023-04-06T09:41:53;9.10;99.90
2851;DHT22;1433;49.976;8.342;2023-04-06T09:44:20;9.20;99.90
2851;DHT22;1433;49.976;8.342;2023-04-06T09:46:46;9.10;99.90
2851;DHT22;1433;49.976;8.342;2023-04-06T09:49:13;9.10;99.90
2851;DHT22;1433;49.976;8.342;2023-04-06T09:51:49;9.10;99.90
2851;DHT22;1433;49.976;8.342;2023-04-06T09:54:21;9.30;99.90
2851;DHT22;1433;49.976;8.342;2023-04-06T09:57:07;9.20;99.90
2851;DHT22;1433;49.976;8.342;2023-04-06T10:02:15;9.20;99.90
2851;DHT22;1433;49.976;8.342;2023-04-06T10:07:22;9.90;99.90
2851;DHT22;1433;49.976;8.342;2023-04-06T10:09:49;10.00;99.90
2851;DHT22;1433;49.976;8.342;2023-04-06T10:12:16;10.40;99.90
2851;DHT22;1433;49.976;8.342;2023-04-06T10:14:42;11.50;99.90
2851;DHT22;1433;49.976;8.342;2023-04-06T10:17:10;12.50;99.90
2851;DHT22;1433;49.976;8.342;2023-04-06T10:19:59;13.30;99.90
2851;DHT22;1433;49.976;8.342;2023-04-06T10:22:41;14.10;99.90
2851;DHT22;1433;49.976;8.342;2023-04-06T10:25:05;14.60;99.90
2851;DHT22;1433;49.976;8.342;2023-04-06T10:27:32;15.10;99.90
2851;DHT22;1433;49.976;8.342;2023-04-06T10:30:04;15.80;99.90
2851;DHT22;1433;49.976;8.342;2023-04-06T10:32:35;16.70;99.90
2851;DHT22;1433;49.976;8.342;2023-04-06T10:35:10;17.40;99.90
2851;DHT22;1433;49.976;8.342;2023-04-06T10:40:23;17.10;99.90
2851;DHT22;1433;49.976;8.342;2023-04-06T10:42:52;17.50;99.90
2851;DHT22;1433;49.976;8.342;2023-04-06T10:45:24;17.30;99.90
2851;DHT22;1433;49.976;8.342;2023-04-06T10:47:54;17.00;99.90
2851;DHT22;1433;49.976;8.342;2023-04-06T10:50:21;16.50;99.90
2851;DHT22;1433;49.976;8.342;2023-04-06T10:52:59;15.40;99.90
2851;DHT22;1433;49.976;8.342;2023-04-06T10:55:28;15.10;99.90
2851;DHT22;1433;49.976;8.342;2023-04-06T10:57:56;15.30;99.90
2851;DHT22;1433;49.976;8.342;2023-04-06T11:00:23;15.80;99.90
2851;DHT22;1433;49.976;8.342;2023-04-06T11:02:49;17.00;99.90
2851;DHT22;1433;49.976;8.342;2023-04-06T11:05:15;16.90;99.90
2851;DHT22;1433;49.976;8.342;2023-04-06T11:07:41;16.90;99.90
2851;DHT22;1433;49.976;8.342;2023-04-06T11:10:08;16.80;99.90
2851;DHT22;1433;49.976;8.342;2023-04-06T11:12:35;16.80;99.90
2851;DHT22;1433;49.976;8.342;2023-04-06T11:15:03;16.60;99.90
2851;DHT22;1433;49.976;8.342;2023-04-06T11:17:36;16.40;99.90
2851;DHT22;1433;49.976;8.342;2023-04-06T11:20:09;16.30;99.90
2851;DHT22;1433;49.976;8.342;2023-04-06T11:22:32;17.00;99.90
2851;DHT22;1433;49.976;8.342;2023-04-06T11:25:05;17.40;99.90
2851;DHT22;1433;49.976;8.342;2023-04-06T11:27:33;17.40;99.90
2851;DHT22;1433;49.976;8.342;2023-04-06T11:30:01;17.40;99.90
2851;DHT22;1433;49.976;8.342;2023-04-06T11:32:27;17.10;99.90
2851;DHT22;1433;49.976;8.342;2023-04-06T11:34:54;16.80;99.90
2851;DHT22;1433;49.976;8.342;2023-04-06T11:37:20;16.60;99.90
2851;DHT22;1433;49.976;8.342;2023-04-06T11:39:51;16.50;99.90
2851;DHT22;1433;49.976;8.342;2023-04-06T11:42:23;17.20;99.90
2851;DHT22;1433;49.976;8.342;2023-04-06T11:44:51;17.90;99.90
2851;DHT22;1433;49.976;8.342;2023-04-06T11:47:19;18.20;99.90
2851;DHT22;1433;49.976;8.342;2023-04-06T11:49:46;18.50;99.90
2851;DHT22;1433;49.976;8.342;2023-04-06T11:54:47;18.20;99.90
2851;DHT22;1433;49.976;8.342;2023-04-06T11:57:14;17.90;99.90
2851;DHT22;1433;49.976;8.342;2023-04-06T11:59:41;17.00;99.90
2851;DHT22;1433;49.976;8.342;2023-04-06T12:02:07;16.60;99.90
2851;DHT22;1433;49.976;8.342;2023-04-06T12:04:33;16.20;99.90
2851;DHT22;1433;49.976;8.342;2023-04-06T12:07:00;16.50;99.90
2851;DHT22;1433;49.976;8.342;2023-04-06T12:09:27;17.90;99.90
2851;DHT22;1433;49.976;8.342;2023-04-06T12:11:53;19.00;99.90
2851;DHT22;1433;49.976;8.342;2023-04-06T12:14:20;18.90;99.90
2851;DHT22;1433;49.976;8.342;2023-04-06T12:16:47;19.10;99.90
2851;DHT22;1433;49.976;8.342;2023-04-06T12:19:13;19.10;99.90
2851;DHT22;1433;49.976;8.342;2023-04-06T12:21:39;18.20;99.90
2851;DHT22;1433;49.976;8.342;2023-04-06T12:24:06;18.20;99.90
2851;DHT22;1433;49.976;8.342;2023-04-06T12:26:33;18.70;99.90
2851;DHT22;1433;49.976;8.342;2023-04-06T12:28:59;19.30;99.90
2851;DHT22;1433;49.976;8.342;2023-04-06T12:31:37;20.00;99.90
2851;DHT22;1433;49.976;8.342;2023-04-06T12:34:08;20.00;1.00
2851;DHT22;1433;49.976;8.342;2023-04-06T12:36:36;20.00;1.00
2851;DHT22;1433;49.976;8.342;2023-04-06T12:39:03;20.20;1.00
2851;DHT22;1433;49.976;8.342;2023-04-06T12:41:29;20.70;99.90
2851;DHT22;1433;49.976;8.342;2023-04-06T12:43:55;20.30;99.90
2851;DHT22;1433;49.976;8.342;2023-04-06T12:46:23;20.30;99.90
2851;DHT22;1433;49.976;8.342;2023-04-06T12:48:51;20.50;99.90
2851;DHT22;1433;49.976;8.342;2023-04-06T12:51:19;20.80;99.90
2851;DHT22;1433;49.976;8.342;2023-04-06T12:53:45;20.40;99.90
2851;DHT22;1433;49.976;8.342;2023-04-06T12:56:16;20.20;99.90
2851;DHT22;1433;49.976;8.342;2023-04-06T12:58:44;19.00;99.90
2851;DHT22;1433;49.976;8.342;2023-04-06T13:01:11;18.60;99.90
2851;DHT22;1433;49.976;8.342;2023-04-06T13:03:40;18.90;99.90
2851;DHT22;1433;49.976;8.342;2023-04-06T13:06:07;18.80;99.90
2851;DHT22;1433;49.976;8.342;2023-04-06T13:08:40;18.50;99.90
2851;DHT22;1433;49.976;8.342;2023-04-06T13:11:06;18.40;99.90
2851;DHT22;1433;49.976;8.342;2023-04-06T13:13:36;18.30;99.90
2851;DHT22;1433;49.976;8.342;2023-04-06T13:16:07;17.90;99.90
2851;DHT22;1433;49.976;8.342;2023-04-06T13:18:34;18.40;99.90
2851;DHT22;1433;49.976;8.342;2023-04-06T13:21:03;18.50;99.90
2851;DHT22;1433;49.976;8.342;2023-04-06T13:23:30;18.90;99.90
2851;DHT22;1433;49.976;8.342;2023-04-06T13:25:57;18.80;99.90
2851;DHT22;1433;49.976;8.342;2023-04-06T13:28:24;18.40;99.90
2851;DHT22;1433;49.976;8.342;2023-04-06T13:30:50;18.20;99.90
2851;DHT22;1433;49.976;8.342;2023-04-06T13:33:16;18.10;99.90
2851;DHT22;1433;49.976;8.342;2023-04-06T13:35:46;17.80;99.90
2851;DHT22;1433;49.976;8.342;2023-04-06T13:38:12;17.80;99.90
2851;DHT22;1433;49.976;8.342;2023-04-06T13:40:40;17.80;99.90
2851;DHT22;1433;49.976;8.342;2023-04-06T13:43:06;17.60;99.90
2851;DHT22;1433;49.976;8.342;2023-04-06T13:45:32;17.50;99.90
2851;DHT22;1433;49.976;8.342;2023-04-06T13:47:59;17.30;99.90
2851;DHT22;1433;49.976;8.342;2023-04-06T13:50:26;17.30;99.90
2851;DHT22;1433;49.976;8.342;2023-04-06T13:52:55;17.40;99.90
2851;DHT22;1433;49.976;8.342;2023-04-06T13:55:22;17.40;99.90
2851;DHT22;1433;49.976;8.342;2023-04-06T14:00:38;17.40;99.90
2851;DHT22;1433;49.976;8.342;2023-04-06T14:03:05;17.80;99.90
2851;DHT22;1433;49.976;8.342;2023-04-06T14:05:32;18.20;99.90
2851;DHT22;1433;49.976;8.342;2023-04-06T14:08:01;18.00;99.90
2851;DHT22;1433;49.976;8.342;2023-04-06T14:10:29;17.90;99.90
2851;DHT22;1433;49.976;8.342;2023-04-06T14:12:55;17.20;99.90
2851;DHT22;1433;49.976;8.342;2023-04-06T14:15:22;17.10;99.90
2851;DHT22;1433;49.976;8.342;2023-04-06T14:17:49;17.20;99.90
2851;DHT22;1433;49.976;8.342;2023-04-06T14:20:17;17.10;99.90
2851;DHT22;1433;49.976;8.342;2023-04-06T14:22:43;17.10;99.90
2851;DHT22;1433;49.976;8.342;2023-04-06T14:25:09;16.90;99.90
2851;DHT22;1433;49.976;8.342;2023-04-06T14:27:37;16.70;99.90
2851;DHT22;1433;49.976;8.342;2023-04-06T14:30:03;16.70;99.90
2851;DHT22;1433;49.976;8.342;2023-04-06T14:32:29;16.70;99.90
2851;DHT22;1433;49.976;8.342;2023-04-06T14:34:56;16.30;99.90
2851;DHT22;1433;49.976;8.342;2023-04-06T14:37:22;16.20;99.90
2851;DHT22;1433;49.976;8.342;2023-04-06T14:39:48;16.00;99.90
2851;DHT22;1433;49.976;8.342;2023-04-06T14:42:14;16.00;99.90
2851;DHT22;1433;49.976;8.342;2023-04-06T14:44:40;16.10;99.90
2851;DHT22;1433;49.976;8.342;2023-04-06T14:47:09;16.10;99.90
2851;DHT22;1433;49.976;8.342;2023-04-06T14:49:36;15.80;99.90
2851;DHT22;1433;49.976;8.342;2023-04-06T14:52:02;15.60;99.90
2851;DHT22;1433;49.976;8.342;2023-04-06T14:54:28;15.50;99.90
2851;DHT22;1433;49.976;8.342;2023-04-06T14:56:54;15.60;99.90
2851;DHT22;1433;49.976;8.342;2023-04-06T14:59:21;15.50;99.90
2851;DHT22;1433;49.976;8.342;2023-04-06T15:01:47;15.30;99.90
2851;DHT22;1433;49.976;8.342;2023-04-06T15:04:13;15.30;99.90
2851;DHT22;1433;49.976;8.342;2023-04-06T15:06:39;15.30;99.90
2851;DHT22;1433;49.976;8.342;2023-04-06T15:09:06;15.30;99.90
2851;DHT22;1433;49.976;8.342;2023-04-06T15:11:32;15.20;99.90
2851;DHT22;1433;49.976;8.342;2023-04-06T15:13:59;15.20;99.90
2851;DHT22;1433;49.976;8.342;2023-04-06T15:16:26;15.10;99.90
2851;DHT22;1433;49.976;8.342;2023-04-06T15:18:52;15.00;99.90
2851;DHT22;1433;49.976;8.342;2023-04-06T15:21:18;14.80;99.90
2851;DHT22;1433;49.976;8.342;2023-04-06T15:23:45;14.70;99.90
2851;DHT22;1433;49.976;8.342;2023-04-06T15:26:12;14.50;99.90
2851;DHT22;1433;49.976;8.342;2023-04-06T15:28:38;14.40;99.90
2851;DHT22;1433;49.976;8.342;2023-04-06T15:31:16;14.30;99.90
2851;DHT22;1433;49.976;8.342;2023-04-06T15:33:40;14.30;99.90
2851;DHT22;1433;49.976;8.342;2023-04-06T15:36:16;14.20;99.90
2851;DHT22;1433;49.976;8.342;2023-04-06T15:38:36;14.20;99.90
2851;DHT22;1433;49.976;8.342;2023-04-06T15:41:02;14.10;99.90
2851;DHT22;1433;49.976;8.342;2023-04-06T15:43:30;13.80;99.90
2851;DHT22;1433;49.976;8.342;2023-04-06T15:45:56;13.70;99.90
2851;DHT22;1433;49.976;8.342;2023-04-06T15:48:22;13.80;99.90
2851;DHT22;1433;49.976;8.342;2023-04-06T15:50:49;13.90;99.90
2851;DHT22;1433;49.976;8.342;2023-04-06T15:53:15;13.80;99.90
2851;DHT22;1433;49.976;8.342;2023-04-06T15:55:41;13.70;99.90
2851;DHT22;1433;49.976;8.342;2023-04-06T15:58:07;13.70;99.90
2851;DHT22;1433;49.976;8.342;2023-04-06T16:00:34;13.70;99.90
2851;DHT22;1433;49.976;8.342;2023-04-06T16:03:00;13.50;99.90
2851;DHT22;1433;49.976;8.342;2023-04-06T16:05:28;13.30;99.90
2851;DHT22;1433;49.976;8.342;2023-04-06T16:07:56;13.20;99.90
2851;DHT22;1433;49.976;8.342;2023-04-06T16:10:22;13.20;99.90
2851;DHT22;1433;49.976;8.342;2023-04-06T16:12:48;13.20;1.00
2851;DHT22;1433;49.976;8.342;2023-04-06T16:15:14;13.20;1.00
2851;DHT22;1433;49.976;8.342;2023-04-06T16:17:40;13.20;99.90
2851;DHT22;1433;49.976;8.342;2023-04-06T16:20:08;13.00;97.20
2851;DHT22;1433;49.976;8.342;2023-04-06T16:22:35;13.00;74.60
2851;DHT22;1433;49.976;8.342;2023-04-06T16:25:02;13.00;1.00
2851;DHT22;1433;49.976;8.342;2023-04-06T16:27:28;12.90;1.00